Time;durP1;ratioP1;P1;durP2;ratioP2;P2;SDS_P1;SDS_P2;PMS_P1;PMS_P2;Temp;Humidity;BMP_temperature;BMP_pressure;BME280_temperature;BME280_humidity;BME280_pressure;Samples;Min_cycle;Max_cycle;Signal;HPM_P1;HPM_P2
2023/05/17 00:00:25;;;;;;;;;;;;;;;10.83;88.31;95962.09;5114618;28;19928;-60
2023/05/17 00:02:52;;;;;;;;;;;;;;;10.88;90.14;95954.03;5114755;28;19955;-59
2023/05/17 00:05:19;;;;;;;;;;;;;;;10.90;89.35;95970.50;5114603;28;19923;-60
2023/05/17 00:07:48;;;;;;;;;;;;;;;10.89;88.45;95973.19;5113644;28;20381;-62
2023/05/17 00:10:15;;;;;;;;;;;;;;;10.88;88.23;95959.25;5114512;28;19927;-59
2023/05/17 00:12:42;;;;;;;;;;;;;;;10.91;89.43;95948.66;5114523;28;19996;-59
2023/05/17 00:15:10;;;;;;;;;;;;;;;10.96;89.09;95957.09;5114414;28;19979;-60
2023/05/17 00:17:41;;;;;;;;;;;;;;;11.03;88.89;95944.56;5114380;28;20010;-60
2023/05/17 00:20:09;;;;;;;;;;;;;;;10.96;88.60;95944.00;5114412;28;19930;-60
2023/05/17 00:22:36;;;;;;;;;;;;;;;10.91;88.82;95948.66;5114293;28;19963;-60
2023/05/17 00:25:03;;;;;;;;;;;;;;;10.89;89.03;95932.16;5114378;28;19972;-60
2023/05/17 00:27:30;;;;;;;;;;;;;;;10.91;90.16;95927.72;5114218;28;19924;-59
2023/05/17 00:29:57;;;;;;;;;;;;;;;10.98;90.14;95920.38;5114302;28;19928;-60
2023/05/17 00:32:24;;;;;;;;;;;;;;;11.01;90.68;95915.00;5114276;28;19928;-60
2023/05/17 00:34:52;;;;;;;;;;;;;;;11.05;90.65;95907.84;5114176;28;19924;-60
2023/05/17 00:37:20;;;;;;;;;;;;;;;11.07;90.98;95914.69;5114191;28;20392;-60
2023/05/17 00:39:47;;;;;;;;;;;;;;;11.06;91.22;95904.31;5114083;28;19924;-59
2023/05/17 00:42:14;;;;;;;;;;;;;;;11.11;91.20;95918.03;5114124;28;19924;-60
2023/05/17 00:44:41;;;;;;;;;;;;;;;11.14;90.88;95930.09;5114050;28;20011;-60
2023/05/17 00:47:08;;;;;;;;;;;;;;;11.25;91.61;95925.16;5113957;28;19947;-60
2023/05/17 00:49:35;;;;;;;;;;;;;;;11.35;91.50;95923.78;5114004;28;19959;-60
2023/05/17 00:52:04;;;;;;;;;;;;;;;11.44;91.19;95908.53;5113952;28;19928;-60
2023/05/17 00:54:31;;;;;;;;;;;;;;;11.49;90.35;95898.66;5113730;28;19924;-59
2023/05/17 00:57:00;;;;;;;;;;;;;;;11.47;89.87;95890.03;5113969;28;19931;-60
2023/05/17 00:59:27;;;;;;;;;;;;;;;11.43;90.06;95891.09;5113855;28;20375;-59
2023/05/17 01:01:58;;;;;;;;;;;;;;;11.34;90.44;95901.16;5113816;28;19931;-59
2023/05/17 01:04:25;;;;;;;;;;;;;;;11.27;90.40;95912.84;5113782;28;19931;-59
2023/05/17 01:06:52;;;;;;;;;;;;;;;11.25;90.82;95905.06;5113768;28;19924;-60
2023/05/17 01:09:21;;;;;;;;;;;;;;;11.24;91.17;95910.38;5113732;28;20041;-59
2023/05/17 01:11:55;;;;;;;;;;;;;;;11.22;90.26;95901.75;5113783;28;19928;-60
2023/05/17 01:14:31;;;;;;;;;;;;;;;11.12;88.44;95902.25;5113850;28;19935;-60
2023/05/17 01:17:01;;;;;;;;;;;;;;;11.09;89.03;95896.31;5113727;28;20011;-60
2023/05/17 01:19:41;;;;;;;;;;;;;;;11.16;88.71;95902.91;5116779;28;20372;-60
2023/05/17 01:22:15;;;;;;;;;;;;;;;11.24;89.80;95899.91;5117755;28;19924;-59
2023/05/17 01:24:50;;;;;;;;;;;;;;;11.30;89.70;95893.53;5117781;28;19947;-60
2023/05/17 01:27:21;;;;;;;;;;;;;;;11.36;89.67;95898.44;5117417;28;19924;-59
2023/05/17 01:29:49;;;;;;;;;;;;;;;11.40;88.67;95888.63;5117595;28;19924;-60
2023/05/17 01:32:16;;;;;;;;;;;;;;;11.47;87.95;95892.66;5117600;28;19923;-60
2023/05/17 01:34:43;;;;;;;;;;;;;;;11.45;87.62;95890.13;5117500;28;20314;-60
2023/05/17 01:37:10;;;;;;;;;;;;;;;11.47;87.69;95882.19;5117584;28;19923;-60
2023/05/17 01:39:37;;;;;;;;;;;;;;;11.43;88.03;95885.88;5117453;28;19923;-59
2023/05/17 01:42:07;;;;;;;;;;;;;;;11.44;88.25;95884.97;5117425;28;19924;-60
2023/05/17 01:44:39;;;;;;;;;;;;;;;11.44;88.27;95879.72;5117260;28;19993;-60
2023/05/17 01:47:16;;;;;;;;;;;;;;;11.48;87.72;95881.25;5117203;28;19923;-60
2023/05/17 01:49:47;;;;;;;;;;;;;;;11.52;87.41;95881.91;5117305;28;20304;-59
2023/05/17 01:52:16;;;;;;;;;;;;;;;11.46;86.64;95870.00;5117195;28;19928;-60
2023/05/17 01:54:47;;;;;;;;;;;;;;;11.38;87.18;95879.09;5117264;28;20376;-60
2023/05/17 01:57:15;;;;;;;;;;;;;;;11.35;86.89;95879.25;5117229;28;19969;-60
2023/05/17 01:59:44;;;;;;;;;;;;;;;11.36;86.61;95878.34;5117154;28;20022;-60
2023/05/17 02:02:12;;;;;;;;;;;;;;;11.28;87.26;95882.25;5116952;28;20018;-60
2023/05/17 02:04:39;;;;;;;;;;;;;;;11.30;87.15;95890.91;5116894;28;20360;-60
2023/05/17 02:07:06;;;;;;;;;;;;;;;11.32;86.95;95892.50;5116897;28;19924;-59
2023/05/17 02:09:33;;;;;;;;;;;;;;;11.34;87.07;95895.91;5116953;28;19927;-60
2023/05/17 02:11:59;;;;;;;;;;;;;;;11.40;87.33;95899.13;5116903;28;19931;-59
2023/05/17 02:14:26;;;;;;;;;;;;;;;11.38;87.07;95904.47;5116872;28;19924;-60
2023/05/17 02:16:55;;;;;;;;;;;;;;;11.35;86.36;95899.38;5116710;27;19928;-60
2023/05/17 02:19:22;;;;;;;;;;;;;;;11.33;85.78;95896.84;5116676;28;19923;-60
2023/05/17 02:21:49;;;;;;;;;;;;;;;11.34;85.87;95900.28;5116615;28;20318;-60
2023/05/17 02:24:16;;;;;;;;;;;;;;;11.34;85.45;95902.91;5116602;28;19923;-60
2023/05/17 02:26:44;;;;;;;;;;;;;;;11.30;85.28;95910.09;5116431;27;19924;-60
2023/05/17 02:29:11;;;;;;;;;;;;;;;11.30;85.33;95909.22;5116330;28;19993;-60
2023/05/17 02:31:38;;;;;;;;;;;;;;;11.25;85.40;95909.47;5115813;28;19992;-60
2023/05/17 02:34:06;;;;;;;;;;;;;;;11.24;85.48;95918.25;5116708;28;20289;-60
2023/05/17 02:36:33;;;;;;;;;;;;;;;11.18;86.24;95916.78;5116319;28;20002;-59
2023/05/17 02:39:00;;;;;;;;;;;;;;;11.21;86.74;95919.25;5116344;28;19928;-60
2023/05/17 02:41:27;;;;;;;;;;;;;;;11.28;86.66;95921.53;5116281;28;19928;-60
2023/05/17 02:43:54;;;;;;;;;;;;;;;11.29;86.36;95923.25;5116266;28;19997;-59
2023/05/17 02:46:21;;;;;;;;;;;;;;;11.26;85.60;95919.03;5116190;28;19923;-60
2023/05/17 02:48:48;;;;;;;;;;;;;;;11.21;85.50;95915.78;5116010;28;19924;-60
2023/05/17 02:51:16;;;;;;;;;;;;;;;11.23;85.52;95927.03;5116012;28;20377;-61
2023/05/17 02:53:44;;;;;;;;;;;;;;;11.19;85.29;95923.72;5116096;28;20486;-59
2023/05/17 02:56:11;;;;;;;;;;;;;;;11.16;85.40;95923.84;5116031;28;20035;-60
2023/05/17 02:58:38;;;;;;;;;;;;;;;11.14;85.09;95924.88;5116100;28;19924;-59
2023/05/17 03:01:05;;;;;;;;;;;;;;;11.13;85.17;95937.09;5115865;28;19924;-60
2023/05/17 03:03:32;;;;;;;;;;;;;;;11.15;85.27;95947.50;5115731;27;19963;-60
2023/05/17 03:06:00;;;;;;;;;;;;;;;11.07;85.36;95953.97;5115805;28;19927;-60
2023/05/17 03:08:29;;;;;;;;;;;;;;;11.10;85.82;95945.09;5115677;28;19931;-60
2023/05/17 03:10:57;;;;;;;;;;;;;;;10.98;86.97;95949.16;5115661;28;20347;-60
2023/05/17 03:13:23;;;;;;;;;;;;;;;11.02;86.58;95947.25;5115735;28;19942;-60
2023/05/17 03:15:50;;;;;;;;;;;;;;;11.00;85.75;95944.72;5115543;28;19969;-60
2023/05/17 03:18:17;;;;;;;;;;;;;;;11.03;85.22;95943.72;5115641;28;20369;-60
2023/05/17 03:20:45;;;;;;;;;;;;;;;11.03;85.17;95939.34;5115483;28;19930;-60
2023/05/17 03:23:12;;;;;;;;;;;;;;;11.06;85.26;95936.56;5115469;28;19970;-59
2023/05/17 03:25:40;;;;;;;;;;;;;;;11.04;85.27;95942.78;5115500;28;19924;-60
2023/05/17 03:28:07;;;;;;;;;;;;;;;10.99;85.61;95937.81;5115104;28;20012;-60
2023/05/17 03:30:34;;;;;;;;;;;;;;;10.99;85.99;95937.81;5115282;28;19934;-59
2023/05/17 03:33:02;;;;;;;;;;;;;;;10.96;85.70;95933.53;5115202;28;19923;-60
2023/05/17 03:35:28;;;;;;;;;;;;;;;10.92;86.04;95936.38;5115181;28;19969;-60
2023/05/17 03:37:55;;;;;;;;;;;;;;;10.94;85.95;95929.31;5115207;27;19931;-60
2023/05/17 03:40:22;;;;;;;;;;;;;;;10.96;85.66;95925.69;5115132;28;20373;-60
2023/05/17 03:42:52;;;;;;;;;;;;;;;10.96;86.15;95924.88;5114859;28;20007;-60
2023/05/17 03:45:19;;;;;;;;;;;;;;;10.96;86.33;95930.94;5115015;28;19930;-60
2023/05/17 03:47:47;;;;;;;;;;;;;;;11.02;85.91;95926.31;5114877;28;19924;-60
2023/05/17 03:50:14;;;;;;;;;;;;;;;11.05;86.28;95924.38;5114922;28;19948;-59
2023/05/17 03:52:41;;;;;;;;;;;;;;;11.07;86.27;95926.94;5114889;28;19930;-59
2023/05/17 03:55:10;;;;;;;;;;;;;;;11.14;86.55;95930.97;5114904;28;19977;-60
2023/05/17 03:57:38;;;;;;;;;;;;;;;11.23;86.69;95934.88;5114643;28;19924;-60
2023/05/17 04:00:09;;;;;;;;;;;;;;;11.32;86.67;95944.03;5114811;28;19935;-59
2023/05/17 04:02:37;;;;;;;;;;;;;;;11.37;86.35;95944.66;5114635;28;19988;-60
2023/05/17 04:05:04;;;;;;;;;;;;;;;11.43;86.09;95954.81;5114655;28;19924;-58
2023/05/17 04:07:32;;;;;;;;;;;;;;;11.47;86.21;95947.66;5114514;28;20327;-59
2023/05/17 04:10:01;;;;;;;;;;;;;;;11.52;86.23;95945.63;5114568;28;19924;-59
2023/05/17 04:12:28;;;;;;;;;;;;;;;11.58;85.86;95947.94;5114642;28;20304;-59
2023/05/17 04:14:55;;;;;;;;;;;;;;;11.64;86.27;95944.16;5114534;28;20391;-59
2023/05/17 04:17:24;;;;;;;;;;;;;;;11.68;86.76;95945.69;5114391;28;20392;-59
2023/05/17 04:19:52;;;;;;;;;;;;;;;11.79;86.09;95945.13;5114363;28;19930;-60
2023/05/17 04:22:20;;;;;;;;;;;;;;;11.87;85.66;95942.94;5114385;28;19923;-59
2023/05/17 04:24:47;;;;;;;;;;;;;;;11.95;85.11;95953.03;5114399;28;19970;-60
2023/05/17 04:27:15;;;;;;;;;;;;;;;11.98;86.07;95944.19;5114189;28;20432;-60
2023/05/17 04:29:43;;;;;;;;;;;;;;;12.06;86.00;95946.34;5114245;28;19931;-60
2023/05/17 04:32:10;;;;;;;;;;;;;;;12.12;85.48;95954.78;5114248;27;19923;-59
2023/05/17 04:34:39;;;;;;;;;;;;;;;12.15;84.92;95963.41;5114143;28;19969;-59
2023/05/17 04:37:07;;;;;;;;;;;;;;;12.27;83.95;95968.00;5114210;28;19930;-60
2023/05/17 04:39:35;;;;;;;;;;;;;;;12.38;83.98;95973.50;5114085;28;19930;-59
2023/05/17 04:42:02;;;;;;;;;;;;;;;12.51;84.54;95963.19;5114093;28;20377;-60
2023/05/17 04:44:30;;;;;;;;;;;;;;;12.64;84.73;95957.25;5114053;28;19931;-59
2023/05/17 04:46:57;;;;;;;;;;;;;;;12.79;85.14;95950.31;5114125;28;19924;-59
2023/05/17 04:49:25;;;;;;;;;;;;;;;12.91;84.25;95954.00;5114013;28;20335;-60
2023/05/17 04:51:53;;;;;;;;;;;;;;;13.00;83.81;95953.50;5113968;28;20344;-59
2023/05/17 04:54:20;;;;;;;;;;;;;;;13.06;83.14;95962.78;5113401;28;19930;-60
2023/05/17 04:56:47;;;;;;;;;;;;;;;13.14;83.23;95960.59;5113910;28;19928;-59
2023/05/17 04:59:18;;;;;;;;;;;;;;;13.24;83.16;95970.53;5113832;28;19939;-59
2023/05/17 05:01:45;;;;;;;;;;;;;;;13.27;83.29;95975.63;5113864;28;19928;-59
2023/05/17 05:04:12;;;;;;;;;;;;;;;13.32;83.70;95988.50;5113876;28;19945;-60
2023/05/17 05:06:39;;;;;;;;;;;;;;;13.37;84.10;95983.81;5113897;28;19970;-60
2023/05/17 05:09:08;;;;;;;;;;;;;;;13.40;84.44;95994.16;5113795;28;19924;-59
2023/05/17 05:11:35;;;;;;;;;;;;;;;13.33;84.50;95991.03;5113741;28;19927;-60
2023/05/17 05:14:01;;;;;;;;;;;;;;;13.37;84.52;95989.06;5113752;28;19963;-59
2023/05/17 05:16:28;;;;;;;;;;;;;;;13.48;84.08;95985.81;5113845;28;20018;-59
2023/05/17 05:18:55;;;;;;;;;;;;;;;13.58;83.30;95981.72;5113680;28;19924;-60
2023/05/17 05:21:22;;;;;;;;;;;;;;;13.67;83.10;95971.63;5113814;28;19923;-60
2023/05/17 05:23:50;;;;;;;;;;;;;;;13.77;82.31;95967.50;5113696;28;19923;-59
2023/05/17 05:26:19;;;;;;;;;;;;;;;13.82;82.82;95968.06;5113630;28;19930;-60
2023/05/17 05:28:45;;;;;;;;;;;;;;;13.94;82.87;95971.72;5113301;28;20335;-60
2023/05/17 05:31:12;;;;;;;;;;;;;;;14.03;82.63;95972.97;5113623;28;19924;-59
2023/05/17 05:33:40;;;;;;;;;;;;;;;14.09;82.77;95969.94;5113605;28;19950;-59
2023/05/17 05:36:07;;;;;;;;;;;;;;;14.14;82.32;95970.53;5113537;28;19928;-60
2023/05/17 05:38:33;;;;;;;;;;;;;;;14.16;81.27;95965.19;5113468;28;19938;-59
2023/05/17 05:41:01;;;;;;;;;;;;;;;14.05;78.39;95973.72;5113812;28;19924;-59
2023/05/17 05:43:29;;;;;;;;;;;;;;;14.00;77.51;95954.75;5113662;28;19924;-59
2023/05/17 05:45:56;;;;;;;;;;;;;;;13.88;78.45;95953.72;5113484;28;19928;-59
2023/05/17 05:48:23;;;;;;;;;;;;;;;13.95;79.21;95938.41;5113351;28;19924;-59
2023/05/17 05:50:50;;;;;;;;;;;;;;;13.86;79.12;95940.69;5113512;28;19928;-59
2023/05/17 05:53:17;;;;;;;;;;;;;;;13.73;79.74;95944.97;5113369;28;19928;-59
2023/05/17 05:55:44;;;;;;;;;;;;;;;13.67;80.95;95934.84;5113422;28;19946;-59
2023/05/17 05:58:11;;;;;;;;;;;;;;;13.69;81.32;95943.50;5113385;28;19924;-59
2023/05/17 06:00:39;;;;;;;;;;;;;;;13.83;80.81;95948.75;5113335;28;20018;-59
2023/05/17 06:03:06;;;;;;;;;;;;;;;13.99;81.03;95948.66;5113421;28;19969;-59
2023/05/17 06:05:33;;;;;;;;;;;;;;;14.18;82.79;95944.03;5114698;28;19924;-60
2023/05/17 06:08:00;;;;;;;;;;;;;;;14.33;84.44;95953.59;5116986;28;19924;-59
2023/05/17 06:10:27;;;;;;;;;;;;;;;14.46;85.36;95958.09;5117244;28;19967;-59
2023/05/17 06:12:54;;;;;;;;;;;;;;;14.60;82.82;95954.59;5116778;27;20369;-59
2023/05/17 06:15:21;;;;;;;;;;;;;;;14.69;80.99;95961.88;5116864;28;19964;-59
2023/05/17 06:17:49;;;;;;;;;;;;;;;14.64;78.89;95963.97;5116804;28;20014;-60
2023/05/17 06:20:17;;;;;;;;;;;;;;;14.79;79.53;95967.47;5116649;27;19931;-59
2023/05/17 06:22:43;;;;;;;;;;;;;;;14.97;80.77;95973.31;5116693;28;19930;-60
2023/05/17 06:25:11;;;;;;;;;;;;;;;15.11;81.16;95972.41;5116669;28;20009;-59
2023/05/17 06:27:40;;;;;;;;;;;;;;;15.19;82.16;95969.28;5116379;28;19981;-59
2023/05/17 06:30:09;;;;;;;;;;;;;;;15.29;83.04;95970.34;5116492;28;19946;-60
2023/05/17 06:32:36;;;;;;;;;;;;;;;15.39;82.30;95970.56;5116463;28;20354;-59
2023/05/17 06:35:06;;;;;;;;;;;;;;;15.53;82.04;95979.34;5116446;28;19931;-59
2023/05/17 06:37:33;;;;;;;;;;;;;;;15.65;82.49;95989.09;5116478;28;19924;-59
2023/05/17 06:40:03;;;;;;;;;;;;;;;15.71;83.71;95995.72;5116364;28;20361;-59
2023/05/17 06:42:29;;;;;;;;;;;;;;;15.81;83.48;95995.97;5116354;28;19924;-60
2023/05/17 06:44:56;;;;;;;;;;;;;;;15.90;82.67;96002.41;5116189;28;19934;-59
2023/05/17 06:47:23;;;;;;;;;;;;;;;15.97;81.98;95995.78;5116230;28;19977;-60
2023/05/17 06:49:50;;;;;;;;;;;;;;;16.06;81.64;95989.03;5116050;28;19977;-60
2023/05/17 06:52:19;;;;;;;;;;;;;;;16.16;80.99;95990.09;5116091;28;19924;-59
2023/05/17 06:54:45;;;;;;;;;;;;;;;16.27;80.12;95999.91;5115962;28;19942;-60
2023/05/17 06:57:12;;;;;;;;;;;;;;;16.38;79.68;95993.03;5116028;28;19923;-59
2023/05/17 06:59:39;;;;;;;;;;;;;;;16.35;79.06;95996.72;5115958;28;19923;-59
2023/05/17 07:02:06;;;;;;;;;;;;;;;16.40;80.10;95994.59;5115975;28;19924;-59
2023/05/17 07:04:33;;;;;;;;;;;;;;;16.39;77.99;95990.28;5115894;28;20384;-59
2023/05/17 07:07:00;;;;;;;;;;;;;;;16.45;78.88;95990.78;5115911;28;20007;-59
2023/05/17 07:09:28;;;;;;;;;;;;;;;16.59;79.79;95980.09;5115646;28;19924;-59
2023/05/17 07:11:55;;;;;;;;;;;;;;;16.60;78.77;95981.78;5115593;28;20011;-60
2023/05/17 07:14:22;;;;;;;;;;;;;;;16.65;78.60;95969.09;5115612;28;19924;-59
2023/05/17 07:16:49;;;;;;;;;;;;;;;16.58;76.82;95977.56;5115240;28;19967;-59
2023/05/17 07:19:16;;;;;;;;;;;;;;;16.45;78.14;95989.00;5115493;28;19974;-59
2023/05/17 07:21:43;;;;;;;;;;;;;;;16.35;77.26;95996.72;5115523;28;19930;-59
2023/05/17 07:24:10;;;;;;;;;;;;;;;16.24;77.02;95986.06;5115510;28;20283;-59
2023/05/17 07:26:38;;;;;;;;;;;;;;;16.15;76.37;95990.19;5115588;28;19977;-59
2023/05/17 07:29:08;;;;;;;;;;;;;;;16.22;76.17;95983.53;5115315;28;19946;-59
2023/05/17 07:31:35;;;;;;;;;;;;;;;16.31;76.66;95995.22;5115274;28;19931;-59
2023/05/17 07:34:02;;;;;;;;;;;;;;;16.28;76.98;95988.38;5115336;27;19927;-59
2023/05/17 07:36:29;;;;;;;;;;;;;;;16.15;72.74;95991.03;5115332;28;20027;-59
2023/05/17 07:38:57;;;;;;;;;;;;;;;16.15;74.97;95985.75;5115206;28;19923;-59
2023/05/17 07:41:24;;;;;;;;;;;;;;;16.08;75.44;95987.16;5115209;28;19946;-59
2023/05/17 07:43:53;;;;;;;;;;;;;;;16.05;75.14;95987.34;5115102;27;19977;-59
2023/05/17 07:46:20;;;;;;;;;;;;;;;15.91;75.84;95985.63;5114899;28;19923;-59
2023/05/17 07:48:47;;;;;;;;;;;;;;;15.70;74.89;95980.00;5114901;28;20321;-59
2023/05/17 07:51:14;;;;;;;;;;;;;;;15.67;76.92;95983.72;5114897;28;19974;-59
2023/05/17 07:53:41;;;;;;;;;;;;;;;15.60;78.31;95988.56;5115034;28;20010;-59
2023/05/17 07:56:08;;;;;;;;;;;;;;;15.53;76.41;95992.53;5115034;28;20342;-59
2023/05/17 07:58:35;;;;;;;;;;;;;;;15.55;77.77;95985.38;5114867;28;20004;-59
2023/05/17 08:01:04;;;;;;;;;;;;;;;15.64;77.06;95987.41;5114908;28;20296;-59
2023/05/17 08:03:31;;;;;;;;;;;;;;;15.70;77.12;95987.91;5114753;28;19924;-59
2023/05/17 08:05:58;;;;;;;;;;;;;;;15.83;78.21;95996.69;5114582;28;19923;-59
2023/05/17 08:08:25;;;;;;;;;;;;;;;15.87;76.96;95997.34;5114524;28;19969;-59
2023/05/17 08:10:52;;;;;;;;;;;;;;;15.83;77.86;95993.22;5114563;28;19924;-59
2023/05/17 08:13:19;;;;;;;;;;;;;;;15.84;77.27;95987.84;5114705;28;19924;-59
2023/05/17 08:15:46;;;;;;;;;;;;;;;15.87;77.72;95990.25;5114803;28;20011;-59
2023/05/17 08:18:14;;;;;;;;;;;;;;;15.85;76.58;95988.66;5114595;28;19975;-59
2023/05/17 08:20:42;;;;;;;;;;;;;;;15.86;78.13;95988.56;5114623;28;20002;-59
2023/05/17 08:23:09;;;;;;;;;;;;;;;15.91;79.23;95990.91;5114464;28;19924;-59
2023/05/17 08:25:36;;;;;;;;;;;;;;;15.91;77.64;95988.25;5114338;28;19935;-59
2023/05/17 08:28:03;;;;;;;;;;;;;;;16.04;76.97;95985.66;5113310;28;20265;-59
2023/05/17 08:30:30;;;;;;;;;;;;;;;16.19;78.83;95988.19;5114157;28;20451;-60
2023/05/17 08:32:57;;;;;;;;;;;;;;;16.28;79.78;95995.44;5114187;28;20010;-59
2023/05/17 08:35:26;;;;;;;;;;;;;;;16.18;78.76;95989.97;5114186;28;19976;-59
2023/05/17 08:37:53;;;;;;;;;;;;;;;16.19;77.54;95990.84;5114083;28;19924;-60
2023/05/17 08:40:20;;;;;;;;;;;;;;;16.34;78.62;96002.13;5114138;28;19931;-59
2023/05/17 08:42:47;;;;;;;;;;;;;;;16.35;77.97;96001.16;5114242;28;19931;-59
2023/05/17 08:45:15;;;;;;;;;;;;;;;16.42;79.70;95999.78;5114195;28;20033;-59
2023/05/17 08:47:43;;;;;;;;;;;;;;;16.42;78.75;96005.03;5114046;28;20010;-59
2023/05/17 08:50:11;;;;;;;;;;;;;;;16.49;79.56;96005.44;5113982;28;19962;-59
2023/05/17 08:52:40;;;;;;;;;;;;;;;16.58;78.27;96004.81;5113973;28;19993;-59
2023/05/17 08:55:07;;;;;;;;;;;;;;;16.65;77.68;96007.88;5113943;28;20442;-59
2023/05/17 08:57:35;;;;;;;;;;;;;;;16.66;78.02;96009.53;5113938;28;19923;-60
2023/05/17 09:00:04;;;;;;;;;;;;;;;16.73;79.72;96002.88;5114031;28;19931;-60
2023/05/17 09:02:31;;;;;;;;;;;;;;;16.64;78.21;96004.38;5113996;28;20351;-59
2023/05/17 09:04:58;;;;;;;;;;;;;;;16.65;78.17;96005.22;5113926;28;19923;-60
2023/05/17 09:07:25;;;;;;;;;;;;;;;16.71;79.06;96001.28;5113893;28;19963;-59
2023/05/17 09:09:53;;;;;;;;;;;;;;;16.78;79.34;95998.09;5113690;28;19923;-59
2023/05/17 09:12:20;;;;;;;;;;;;;;;16.86;79.57;95996.72;5113829;28;20434;-59
2023/05/17 09:14:47;;;;;;;;;;;;;;;16.93;80.25;95990.88;5113801;28;20339;-60
2023/05/17 09:17:15;;;;;;;;;;;;;;;17.03;80.66;96000.75;5113829;28;19967;-59
2023/05/17 09:19:43;;;;;;;;;;;;;;;17.02;80.87;96004.34;5113703;28;19976;-59
2023/05/17 09:22:12;;;;;;;;;;;;;;;17.01;82.60;96003.50;5113888;28;20030;-59
2023/05/17 09:24:40;;;;;;;;;;;;;;;16.97;82.31;96001.19;5113761;28;19924;-60
2023/05/17 09:27:08;;;;;;;;;;;;;;;16.94;82.90;95996.97;5113600;28;19977;-59
2023/05/17 09:29:35;;;;;;;;;;;;;;;16.87;82.90;95998.38;5113413;28;19971;-60
2023/05/17 09:32:12;;;;;;;;;;;;;;;16.88;83.14;96000.91;5113703;28;19927;-59
2023/05/17 09:34:40;;;;;;;;;;;;;;;16.85;82.61;96006.41;5113626;28;19924;-59
2023/05/17 09:37:12;;;;;;;;;;;;;;;16.79;81.34;96005.06;5113523;28;19928;-59
2023/05/17 09:39:40;;;;;;;;;;;;;;;16.64;81.73;96007.00;5115062;28;20018;-59
2023/05/17 09:42:08;;;;;;;;;;;;;;;16.41;80.90;96014.75;5117462;28;19928;-59
2023/05/17 09:44:45;;;;;;;;;;;;;;;16.40;81.56;96010.44;5117496;28;20007;-59
2023/05/17 09:47:21;;;;;;;;;;;;;;;16.27;81.63;96005.19;5117353;28;20369;-59
2023/05/17 09:49:48;;;;;;;;;;;;;;;15.93;81.50;96002.19;5117300;28;19923;-59
2023/05/17 09:52:17;;;;;;;;;;;;;;;15.76;83.20;96003.34;5117302;28;20014;-59
2023/05/17 09:54:44;;;;;;;;;;;;;;;15.64;85.20;95997.94;5117311;28;19924;-60
2023/05/17 09:57:12;;;;;;;;;;;;;;;15.40;86.55;95996.00;5117176;28;20300;-59
2023/05/17 09:59:39;;;;;;;;;;;;;;;15.20;87.92;95992.03;5117228;28;19977;-59
2023/05/17 10:02:10;;;;;;;;;;;;;;;15.25;87.54;95989.09;5117097;28;20010;-59
2023/05/17 10:04:37;;;;;;;;;;;;;;;15.28;88.26;95986.25;5117070;28;19931;-59
2023/05/17 10:07:05;;;;;;;;;;;;;;;15.35;88.79;95978.81;5116958;28;19930;-59
2023/05/17 10:09:35;;;;;;;;;;;;;;;15.38;88.64;95976.81;5116899;28;20368;-59
2023/05/17 10:12:04;;;;;;;;;;;;;;;15.29;88.56;95973.00;5116916;28;19975;-59
2023/05/17 10:14:34;;;;;;;;;;;;;;;15.21;89.67;95980.56;5116839;28;19927;-59
2023/05/17 10:17:02;;;;;;;;;;;;;;;15.11;89.05;95977.69;5116740;28;20373;-59
2023/05/17 10:19:29;;;;;;;;;;;;;;;15.11;89.02;95967.13;5116732;28;20002;-59
2023/05/17 10:21:57;;;;;;;;;;;;;;;15.09;89.98;95961.16;5116781;28;19923;-59
2023/05/17 10:24:25;;;;;;;;;;;;;;;15.17;91.92;95960.63;5116781;28;19966;-60
2023/05/17 10:26:51;;;;;;;;;;;;;;;15.06;90.53;95960.50;5116680;28;19924;-59
2023/05/17 10:29:20;;;;;;;;;;;;;;;15.14;91.32;95956.41;5116330;28;19974;-59
2023/05/17 10:31:49;;;;;;;;;;;;;;;15.12;90.79;95960.94;5116514;28;19947;-59
2023/05/17 10:34:16;;;;;;;;;;;;;;;15.10;91.28;95956.72;5116567;28;19971;-59
2023/05/17 10:36:44;;;;;;;;;;;;;;;15.10;91.23;95961.97;5116573;28;19924;-59
2023/05/17 10:39:11;;;;;;;;;;;;;;;15.19;91.51;95964.00;5116524;28;19924;-59
2023/05/17 10:41:40;;;;;;;;;;;;;;;15.25;91.42;95963.59;5116423;28;19930;-59
2023/05/17 10:44:08;;;;;;;;;;;;;;;15.27;90.69;95961.69;5116303;28;20014;-59
2023/05/17 10:46:36;;;;;;;;;;;;;;;15.28;90.14;95962.56;5116339;28;20353;-59
2023/05/17 10:49:05;;;;;;;;;;;;;;;15.10;89.97;95957.56;5116239;28;20360;-59
2023/05/17 10:51:32;;;;;;;;;;;;;;;14.96;89.72;95962.91;5115239;28;19949;-59
2023/05/17 10:54:07;;;;;;;;;;;;;;;14.89;90.79;95963.28;5116280;28;20012;-59
2023/05/17 10:56:34;;;;;;;;;;;;;;;14.75;91.35;95956.22;5116047;28;20038;-59
2023/05/17 10:59:21;;;;;;;;;;;;;;;14.79;91.56;95959.56;5116121;28;19923;-59
2023/05/17 11:02:02;;;;;;;;;;;;;;;14.78;91.89;95960.50;5116028;28;19927;-59
2023/05/17 11:04:35;;;;;;;;;;;;;;;14.74;91.29;95962.44;5116006;28;19977;-60
2023/05/17 11:07:23;;;;;;;;;;;;;;;14.72;92.47;95956.44;5115835;27;19924;-60
2023/05/17 11:09:52;;;;;;;;;;;;;;;14.78;92.85;95950.81;5115741;28;19946;-59
2023/05/17 11:12:28;;;;;;;;;;;;;;;14.74;92.82;95954.56;5115753;28;19924;-59
2023/05/17 11:14:55;;;;;;;;;;;;;;;14.65;93.32;95953.34;5115762;28;20430;-59
2023/05/17 11:17:24;;;;;;;;;;;;;;;14.68;92.67;95956.72;5115661;28;20342;-59
2023/05/17 11:20:08;;;;;;;;;;;;;;;14.66;92.46;95964.75;5115613;28;19966;-59
2023/05/17 11:22:37;;;;;;;;;;;;;;;14.63;93.36;95967.56;5115564;28;20365;-58
2023/05/17 11:25:07;;;;;;;;;;;;;;;14.72;93.66;95974.84;5115563;27;20407;-59
2023/05/17 11:27:36;;;;;;;;;;;;;;;14.84;92.62;95973.25;5115263;28;19924;-59
2023/05/17 11:30:08;;;;;;;;;;;;;;;14.84;92.08;95965.34;5115380;28;19924;-60
2023/05/17 11:32:35;;;;;;;;;;;;;;;14.90;91.88;95969.41;5115482;28;19931;-60
2023/05/17 11:35:03;;;;;;;;;;;;;;;14.96;91.41;95968.97;5115286;28;20273;-59
2023/05/17 11:37:33;;;;;;;;;;;;;;;14.99;91.80;95971.41;5115247;28;19924;-60
2023/05/17 11:40:04;;;;;;;;;;;;;;;15.01;91.40;95969.53;5115254;28;19924;-59
2023/05/17 11:42:31;;;;;;;;;;;;;;;15.08;91.22;95974.41;5115377;28;19945;-60
2023/05/17 11:45:00;;;;;;;;;;;;;;;15.08;91.57;95969.16;5115137;28;19927;-59
2023/05/17 11:47:28;;;;;;;;;;;;;;;15.03;91.28;95965.00;5115180;28;19924;-58
2023/05/17 11:49:55;;;;;;;;;;;;;;;15.09;90.98;95963.78;5114928;28;20040;-59
2023/05/17 11:52:22;;;;;;;;;;;;;;;15.06;91.71;95971.88;5114881;28;19924;-58
2023/05/17 11:54:51;;;;;;;;;;;;;;;15.02;90.52;95963.31;5114978;28;19924;-58
2023/05/17 11:57:20;;;;;;;;;;;;;;;15.00;90.76;95967.00;5114814;28;20022;-59
2023/05/17 11:59:47;;;;;;;;;;;;;;;14.94;91.97;95970.88;5114660;28;20006;-59
2023/05/17 12:02:26;;;;;;;;;;;;;;;14.93;92.86;95957.81;5114812;28;19977;-58
2023/05/17 12:04:53;;;;;;;;;;;;;;;14.92;92.35;95959.59;5114754;28;20010;-59
2023/05/17 12:07:20;;;;;;;;;;;;;;;14.98;92.51;95958.34;5114791;28;20378;-58
2023/05/17 12:09:47;;;;;;;;;;;;;;;14.99;92.07;95950.34;5114598;28;20347;-59
2023/05/17 12:12:17;;;;;;;;;;;;;;;15.08;92.21;95948.06;5114674;28;20296;-59
2023/05/17 12:14:44;;;;;;;;;;;;;;;15.04;91.38;95950.06;5114661;28;20034;-58
2023/05/17 12:17:12;;;;;;;;;;;;;;;15.03;91.07;95946.56;5114502;28;20289;-59
2023/05/17 12:19:39;;;;;;;;;;;;;;;14.95;91.60;95948.00;5114539;28;19928;-59
2023/05/17 12:22:11;;;;;;;;;;;;;;;14.89;91.22;95942.22;5114502;28;19967;-59
2023/05/17 12:24:39;;;;;;;;;;;;;;;14.85;91.79;95934.63;5114549;28;20042;-59
2023/05/17 12:27:06;;;;;;;;;;;;;;;14.90;92.49;95933.38;5114310;28;20010;-59
2023/05/17 12:29:35;;;;;;;;;;;;;;;14.95;93.68;95933.06;5114079;28;19924;-59
2023/05/17 12:32:06;;;;;;;;;;;;;;;15.01;92.91;95931.81;5113517;28;20230;-59
2023/05/17 12:34:33;;;;;;;;;;;;;;;15.02;93.63;95929.09;5114160;28;19932;-59
2023/05/17 12:37:01;;;;;;;;;;;;;;;15.00;92.24;95933.63;5114317;28;19927;-59
2023/05/17 12:39:31;;;;;;;;;;;;;;;14.98;93.22;95924.97;5114203;28;20026;-59
2023/05/17 12:41:58;;;;;;;;;;;;;;;15.02;93.69;95923.00;5114087;28;19924;-59
2023/05/17 12:44:25;;;;;;;;;;;;;;;15.07;92.85;95923.53;5114153;28;19924;-59
2023/05/17 12:46:54;;;;;;;;;;;;;;;15.15;92.57;95929.09;5114009;28;19949;-59
2023/05/17 12:49:22;;;;;;;;;;;;;;;15.22;92.56;95929.56;5114052;28;19950;-58
2023/05/17 12:51:49;;;;;;;;;;;;;;;15.32;92.27;95932.41;5114057;28;19931;-58